createdAt,value
2023-02-11T00:00:19.426Z,43.03
2023-02-11T00:02:48.014Z,42.67
2023-02-11T00:05:15.538Z,44.97
2023-02-11T00:07:42.907Z,43.13
2023-02-11T00:10:10.560Z,38.83
2023-02-11T00:12:38.445Z,41.30
2023-02-11T00:15:08.673Z,40.17
2023-02-11T00:17:36.115Z,42.63
2023-02-11T00:20:07.218Z,46.03
2023-02-11T00:22:35.489Z,41.93
2023-02-11T00:25:02.868Z,45.00
2023-02-11T00:27:30.219Z,42.63
2023-02-11T00:29:57.547Z,43.23
2023-02-11T00:32:26.216Z,45.83
2023-02-11T00:34:55.150Z,47.17
2023-02-11T00:37:22.659Z,44.10
2023-02-11T00:39:50.851Z,46.17
2023-02-11T00:42:18.226Z,48.17
2023-02-11T00:44:45.563Z,40.40
2023-02-11T00:47:12.900Z,44.63
2023-02-11T00:49:41.842Z,46.23
2023-02-11T00:52:09.190Z,47.10
2023-02-11T00:54:36.558Z,46.57
2023-02-11T00:57:03.986Z,48.43
2023-02-11T00:59:31.388Z,47.13
2023-02-11T01:01:58.827Z,51.20
2023-02-11T01:04:26.205Z,46.80
2023-02-11T01:06:54.876Z,50.93
2023-02-11T01:09:22.201Z,47.40
2023-02-11T01:11:49.564Z,46.80
2023-02-11T01:14:16.960Z,49.63
2023-02-11T01:16:44.349Z,46.67
2023-02-11T01:19:11.695Z,45.37
2023-02-11T01:21:39.036Z,47.57
2023-02-11T01:24:07.937Z,52.83
2023-02-11T01:26:35.370Z,50.80
2023-02-11T01:29:02.813Z,50.97
2023-02-11T01:31:31.349Z,50.07
2023-02-11T01:33:58.858Z,49.60
2023-02-11T01:36:26.438Z,47.30
2023-02-11T01:38:53.771Z,51.67
2023-02-11T01:41:22.559Z,52.93
2023-02-11T01:43:50.401Z,50.53
2023-02-11T01:46:34.714Z,48.50
2023-02-11T01:49:05.338Z,43.73
2023-02-11T01:51:35.510Z,52.30
2023-02-11T01:54:21.390Z,45.67
2023-02-11T01:57:09.952Z,50.33
2023-02-11T01:59:39.649Z,50.17
2023-02-11T02:02:09.363Z,50.20
2023-02-11T02:04:39.826Z,52.77
2023-02-11T02:07:09.263Z,55.60
2023-02-11T02:09:38.922Z,44.67
2023-02-11T02:12:07.769Z,53.87
2023-02-11T02:14:38.618Z,49.17
2023-02-11T02:17:05.966Z,47.90
2023-02-11T02:19:55.109Z,48.37
2023-02-11T02:22:49.040Z,52.27
2023-02-11T02:25:37.363Z,52.47
2023-02-11T02:28:14.690Z,52.50
2023-02-11T02:30:54.328Z,47.33
2023-02-11T02:33:34.435Z,46.13
2023-02-11T02:36:07.174Z,50.97
2023-02-11T02:38:36.467Z,48.47
2023-02-11T02:41:05.142Z,50.07
2023-02-11T02:43:33.347Z,51.50
2023-02-11T02:46:11.036Z,49.00
2023-02-11T02:48:39.733Z,49.60
2023-02-11T02:51:11.474Z,51.70
2023-02-11T02:53:45.548Z,50.57
2023-02-11T02:56:15.298Z,56.93
2023-02-11T02:58:47.486Z,54.33
2023-02-11T03:01:20.801Z,54.63
2023-02-11T03:03:55.539Z,53.27
2023-02-11T03:06:26.914Z,52.13
2023-02-11T03:08:56.080Z,53.90
2023-02-11T03:11:24.121Z,59.33
2023-02-11T03:13:51.853Z,51.10
2023-02-11T03:16:20.848Z,53.23
2023-02-11T03:18:51.484Z,52.00
2023-02-11T03:21:19.981Z,53.77
2023-02-11T03:23:50.740Z,52.53
2023-02-11T03:26:21.050Z,52.67
2023-02-11T03:28:53.139Z,60.80
2023-02-11T03:31:22.759Z,48.63
2023-02-11T03:33:54.357Z,51.97
2023-02-11T03:36:23.788Z,55.03
2023-02-11T03:38:52.844Z,56.00
2023-02-11T03:41:22.526Z,54.13
2023-02-11T03:43:52.083Z,51.03
2023-02-11T03:46:21.480Z,57.43
2023-02-11T03:48:50.213Z,55.03
2023-02-11T03:51:19.438Z,54.97
2023-02-11T03:53:47.527Z,55.87
2023-02-11T03:56:16.803Z,53.30
2023-02-11T03:58:45.307Z,55.90
2023-02-11T04:01:12.851Z,52.37
2023-02-11T04:03:40.405Z,57.23
2023-02-11T04:06:07.898Z,52.07
2023-02-11T04:08:36.604Z,62.07
2023-02-11T04:11:03.951Z,50.73
2023-02-11T04:13:31.316Z,54.57
2023-02-11T04:15:58.704Z,55.37
2023-02-11T04:18:26.035Z,54.53
2023-02-11T04:20:53.410Z,50.47
2023-02-11T04:23:20.755Z,53.20
2023-02-11T04:25:49.996Z,52.57
2023-02-11T04:28:17.618Z,49.70
2023-02-11T04:30:45.006Z,52.40
2023-02-11T04:33:12.371Z,50.60
2023-02-11T04:35:39.760Z,52.43
2023-02-11T04:38:07.150Z,56.63
2023-02-11T04:40:34.528Z,54.23
2023-02-11T04:43:03.201Z,51.03
2023-02-11T04:45:30.574Z,49.60
2023-02-11T04:47:57.947Z,52.90
2023-02-11T04:50:25.285Z,53.13
2023-02-11T04:52:52.620Z,49.03
2023-02-11T04:55:20.114Z,46.63
2023-02-11T04:57:47.607Z,48.90
2023-02-11T05:00:17.153Z,51.63
2023-02-11T05:02:44.483Z,51.30
2023-02-11T05:05:11.819Z,47.90
2023-02-11T05:07:39.173Z,53.47
2023-02-11T05:10:06.756Z,49.77
2023-02-11T05:12:34.140Z,53.77
2023-02-11T05:15:01.462Z,53.67
2023-02-11T05:17:30.174Z,50.10
2023-02-11T05:19:57.506Z,50.57
2023-02-11T05:22:24.856Z,51.30
2023-02-11T05:24:52.184Z,51.47
2023-02-11T05:27:19.493Z,50.27
2023-02-11T05:29:46.830Z,50.33
2023-02-11T05:32:14.166Z,55.77
2023-02-11T05:34:42.907Z,50.67
2023-02-11T05:37:10.305Z,46.77
2023-02-11T05:39:37.676Z,51.50
2023-02-11T05:42:05.369Z,50.57
2023-02-11T05:44:32.699Z,48.00
2023-02-11T05:47:00.071Z,45.47
2023-02-11T05:49:27.492Z,52.27
2023-02-11T05:51:56.181Z,48.17
2023-02-11T05:54:23.562Z,49.63
2023-02-11T05:56:50.933Z,46.67
2023-02-11T05:59:18.281Z,44.97
2023-02-11T06:01:45.649Z,52.50
2023-02-11T06:04:12.984Z,49.03
2023-02-11T06:06:40.321Z,50.97
2023-02-11T06:09:09.861Z,57.10
2023-02-11T06:11:37.238Z,50.13
2023-02-11T06:14:04.597Z,54.33
2023-02-11T06:16:32.032Z,56.97
2023-02-11T06:18:59.420Z,57.30
2023-02-11T06:21:42.476Z,51.67
2023-02-11T06:24:12.413Z,52.00
2023-02-11T06:26:39.784Z,50.07
2023-02-11T06:29:07.217Z,56.03
2023-02-11T06:31:34.727Z,51.87
2023-02-11T06:34:02.179Z,50.70
2023-02-11T06:36:29.554Z,52.73
2023-02-11T06:38:56.919Z,53.10
2023-02-11T06:41:25.629Z,53.60
2023-02-11T06:43:53.460Z,51.50
2023-02-11T06:46:21.043Z,61.60
2023-02-11T06:48:48.407Z,56.23
2023-02-11T06:51:16.356Z,55.90
2023-02-11T06:53:45.128Z,55.83
2023-02-11T06:56:13.582Z,53.63
2023-02-11T06:58:42.240Z,52.67
2023-02-11T07:01:10.350Z,56.43
2023-02-11T07:03:38.541Z,53.93
2023-02-11T07:06:06.444Z,53.63
2023-02-11T07:08:33.958Z,56.97
2023-02-11T07:11:01.294Z,49.47
2023-02-11T07:13:28.703Z,58.40
2023-02-11T07:15:57.443Z,56.00
2023-02-11T07:18:24.821Z,56.73
2023-02-11T07:20:52.160Z,55.53
2023-02-11T07:23:19.496Z,64.10
2023-02-11T07:25:46.833Z,58.63
2023-02-11T07:28:14.231Z,57.73
2023-02-11T07:30:41.953Z,58.20
2023-02-11T07:33:10.649Z,58.30
2023-02-11T07:35:38.000Z,58.20
2023-02-11T07:38:05.390Z,56.83
2023-02-11T07:40:32.872Z,58.13
2023-02-11T07:43:01.601Z,56.40
2023-02-11T07:45:28.938Z,62.10
2023-02-11T07:47:56.260Z,56.67
2023-02-11T07:50:24.924Z,66.57
2023-02-11T07:52:52.262Z,53.33
2023-02-11T07:55:19.579Z,58.40
2023-02-11T07:57:46.970Z,58.87
2023-02-11T08:00:15.082Z,56.90
2023-02-11T08:02:42.567Z,57.30
2023-02-11T08:05:09.909Z,53.93
2023-02-11T08:07:38.650Z,55.50
2023-02-11T08:10:06.361Z,60.30
2023-02-11T08:12:33.683Z,52.50
2023-02-11T08:15:01.048Z,49.23
2023-02-11T08:17:28.384Z,46.10
2023-02-11T08:19:55.932Z,49.90
2023-02-11T08:22:23.291Z,54.57
2023-02-11T08:24:52.580Z,54.40
2023-02-11T08:27:19.954Z,58.67
2023-02-11T08:29:47.287Z,56.17
2023-02-11T08:32:14.674Z,54.73
2023-02-11T08:34:42.033Z,50.63
2023-02-11T08:37:09.890Z,48.67
2023-02-11T08:39:37.243Z,50.73
2023-02-11T08:42:05.990Z,48.47
2023-02-11T08:44:33.428Z,50.50
2023-02-11T08:47:00.804Z,45.73
2023-02-11T08:49:28.189Z,53.53
2023-02-11T08:51:56.348Z,51.10
2023-02-11T08:54:23.705Z,51.13
2023-02-11T08:56:51.785Z,47.10
2023-02-11T08:59:20.558Z,45.73
2023-02-11T09:01:48.036Z,47.30
2023-02-11T09:04:15.508Z,42.97
2023-02-11T09:06:42.882Z,52.83
2023-02-11T09:09:11.757Z,49.37
2023-02-11T09:11:40.582Z,49.83
2023-02-11T09:14:08.429Z,48.43
2023-02-11T09:16:37.354Z,44.40
2023-02-11T09:19:06.561Z,42.87
2023-02-11T09:21:33.945Z,46.50
2023-02-11T09:26:29.142Z,42.47
2023-02-11T09:28:56.529Z,47.87
2023-02-11T09:31:24.901Z,44.37
2023-02-11T09:33:54.504Z,45.40
2023-02-11T09:36:22.475Z,46.57
2023-02-11T09:38:50.121Z,44.13
2023-02-11T09:41:32.988Z,41.90
2023-02-11T09:44:02.822Z,48.53
2023-02-11T09:46:32.315Z,44.53
2023-02-11T09:49:01.169Z,45.73
2023-02-11T09:51:37.056Z,44.97
2023-02-11T09:54:06.469Z,46.07
2023-02-11T09:56:33.793Z,42.50
2023-02-11T09:59:01.225Z,46.00
2023-02-11T10:01:31.383Z,44.87
2023-02-11T10:04:05.217Z,45.37
2023-02-11T10:06:50.595Z,45.00
2023-02-11T10:09:22.981Z,46.80
2023-02-11T10:11:53.680Z,48.87
2023-02-11T10:14:26.268Z,41.37
2023-02-11T10:17:00.783Z,42.57
2023-02-11T10:19:44.943Z,43.27
2023-02-11T10:22:15.753Z,39.60
2023-02-11T10:24:49.475Z,41.97
2023-02-11T10:27:18.321Z,43.13
2023-02-11T10:29:49.219Z,40.43
2023-02-11T10:32:20.320Z,40.93
2023-02-11T10:34:49.080Z,37.47
2023-02-11T10:37:16.449Z,41.03
2023-02-11T10:39:43.854Z,42.43
2023-02-11T10:42:12.794Z,41.10
2023-02-11T10:44:42.515Z,38.97
2023-02-11T10:47:12.219Z,40.70
2023-02-11T10:49:40.550Z,42.77
2023-02-11T10:52:18.964Z,40.53
2023-02-11T10:54:56.879Z,38.83
2023-02-11T10:57:27.093Z,42.50
2023-02-11T10:59:58.247Z,39.27
2023-02-11T11:02:31.908Z,45.87
2023-02-11T11:05:00.601Z,39.83
2023-02-11T11:07:30.306Z,34.60
2023-02-11T11:09:59.691Z,38.10
2023-02-11T11:12:32.311Z,38.70
2023-02-11T11:15:00.458Z,37.40
2023-02-11T11:17:29.109Z,40.73
2023-02-11T11:20:14.406Z,41.23
2023-02-11T11:22:43.504Z,40.67
2023-02-11T11:25:21.527Z,40.57
2023-02-11T11:27:49.520Z,42.10
2023-02-11T11:30:17.712Z,43.17
2023-02-11T11:32:45.692Z,41.07
2023-02-11T11:35:22.579Z,38.43
2023-02-11T11:37:54.642Z,42.47
2023-02-11T11:40:23.650Z,40.70
2023-02-11T11:43:03.834Z,39.53
2023-02-11T11:45:31.271Z,42.37
2023-02-11T11:47:59.700Z,43.07
2023-02-11T11:50:30.035Z,44.53
2023-02-11T11:53:05.452Z,44.47
2023-02-11T11:55:35.762Z,41.17
2023-02-11T11:58:03.106Z,45.03
2023-02-11T12:00:34.871Z,45.50
2023-02-11T12:03:23.957Z,48.77
2023-02-11T12:05:56.230Z,48.57
2023-02-11T12:08:27.240Z,43.97
2023-02-11T12:10:59.285Z,39.63
2023-02-11T12:13:32.069Z,41.90
2023-02-11T12:16:04.654Z,39.33
2023-02-11T12:18:38.683Z,40.37
2023-02-11T12:21:14.619Z,39.60
2023-02-11T12:23:51.222Z,41.37
2023-02-11T12:26:19.951Z,43.43
2023-02-11T12:28:54.602Z,38.50
2023-02-11T12:31:27.355Z,37.33
2023-02-11T12:34:03.453Z,39.57
2023-02-11T12:36:37.995Z,40.17
2023-02-11T12:39:12.358Z,41.40
2023-02-11T12:42:07.915Z,43.23
2023-02-11T12:44:41.553Z,54.43
2023-02-11T12:47:15.027Z,61.20
2023-02-11T12:49:48.581Z,51.60
2023-02-11T12:52:21.107Z,71.13
2023-02-11T12:54:55.087Z,48.10
2023-02-11T12:57:24.229Z,58.03
2023-02-11T12:59:56.480Z,46.70
2023-02-11T13:02:28.629Z,47.20
2023-02-11T13:04:57.588Z,44.07
2023-02-11T13:07:28.501Z,49.07
2023-02-11T13:09:59.762Z,59.77
2023-02-11T13:12:46.101Z,64.70
2023-02-11T13:15:15.358Z,63.23
2023-02-11T13:17:47.078Z,52.83
2023-02-11T13:20:19.430Z,72.87
2023-02-11T13:22:49.658Z,59.23
2023-02-11T13:25:22.209Z,52.87
2023-02-11T13:27:58.574Z,44.17
2023-02-11T13:30:29.199Z,44.23
2023-02-11T13:33:07.490Z,46.90
2023-02-11T13:35:36.076Z,46.60
2023-02-11T13:38:04.189Z,46.40
2023-02-11T13:40:34.232Z,46.83
2023-02-11T13:43:03.336Z,46.17
2023-02-11T13:45:31.721Z,39.83
2023-02-11T13:47:59.406Z,41.43
2023-02-11T13:50:27.670Z,41.93
2023-02-11T13:52:58.801Z,43.87
2023-02-11T13:55:27.481Z,39.77
2023-02-11T13:58:09.702Z,31.93
2023-02-11T14:00:46.937Z,34.83
2023-02-11T14:03:41.533Z,35.20
2023-02-11T14:06:30.867Z,35.50
2023-02-11T14:09:07.773Z,37.73
2023-02-11T14:11:49.028Z,39.40
2023-02-11T14:14:17.877Z,36.10
2023-02-11T14:17:02.962Z,36.43
2023-02-11T14:19:35.285Z,36.57
2023-02-11T14:22:03.295Z,32.60
2023-02-11T14:24:49.172Z,36.83
2023-02-11T14:27:20.742Z,36.27
2023-02-11T14:29:52.229Z,38.63
2023-02-11T14:32:26.430Z,41.47
2023-02-11T14:35:01.256Z,37.23
2023-02-11T14:37:33.897Z,37.10
2023-02-11T14:40:09.122Z,40.30
2023-02-11T14:42:38.965Z,36.57
2023-02-11T14:45:08.535Z,39.57
2023-02-11T14:47:40.964Z,41.77
2023-02-11T14:50:15.387Z,41.80
2023-02-11T14:52:43.269Z,39.40
2023-02-11T14:55:17.916Z,41.23
2023-02-11T14:57:45.776Z,43.27
2023-02-11T15:00:17.450Z,55.20
2023-02-11T15:02:45.344Z,42.77
2023-02-11T15:05:21.635Z,53.10
2023-02-11T15:07:50.010Z,45.60
2023-02-11T15:10:25.184Z,42.20
2023-02-11T15:12:53.518Z,47.67
2023-02-11T15:15:20.889Z,45.40
2023-02-11T15:17:48.367Z,44.90
2023-02-11T15:20:22.914Z,42.23
2023-02-11T15:22:53.054Z,46.13
2023-02-11T15:25:21.304Z,39.90
2023-02-11T15:27:49.548Z,43.37
2023-02-11T15:30:30.187Z,45.70
2023-02-11T15:32:59.918Z,43.40
2023-02-11T15:35:30.097Z,44.67
2023-02-11T15:37:58.325Z,41.97
2023-02-11T15:40:27.721Z,46.07
2023-02-11T15:42:58.432Z,49.60
2023-02-11T15:45:29.626Z,39.00
2023-02-11T15:47:58.750Z,43.57
2023-02-11T15:50:27.187Z,46.70
2023-02-11T15:52:56.352Z,44.10
2023-02-11T15:55:24.589Z,43.53
2023-02-11T15:57:56.142Z,43.17
2023-02-11T16:00:24.778Z,47.60
2023-02-11T16:02:52.875Z,41.80
2023-02-11T16:05:26.539Z,42.47
2023-02-11T16:07:53.944Z,81.40
2023-02-11T16:10:27.172Z,57.37
2023-02-11T16:12:55.519Z,59.23
2023-02-11T16:15:29.361Z,46.30
2023-02-11T16:17:56.834Z,44.07
2023-02-11T16:20:24.222Z,48.87
2023-02-11T16:22:51.595Z,50.90
2023-02-11T16:25:19.899Z,47.07
2023-02-11T16:27:52.032Z,49.10
2023-02-11T16:30:24.739Z,44.47
2023-02-11T16:32:53.744Z,45.23
2023-02-11T16:35:21.350Z,54.83
2023-02-11T16:37:48.670Z,45.97
2023-02-11T16:40:16.272Z,52.47
2023-02-11T16:42:43.642Z,45.23
2023-02-11T16:45:12.327Z,67.07
2023-02-11T16:47:42.229Z,49.63
2023-02-11T16:50:10.387Z,51.23
2023-02-11T16:52:38.573Z,51.50
2023-02-11T16:55:06.317Z,53.07
2023-02-11T16:57:33.704Z,52.77
2023-02-11T17:00:01.152Z,56.33
2023-02-11T17:02:31.332Z,61.67
2023-02-11T17:04:59.658Z,59.90
2023-02-11T17:07:27.427Z,65.20
2023-02-11T17:09:54.768Z,62.20
2023-02-11T17:12:25.284Z,58.37
2023-02-11T17:14:52.680Z,62.60
2023-02-11T17:17:21.933Z,57.53
2023-02-11T17:19:51.143Z,86.43
2023-02-11T17:22:18.593Z,60.67
2023-02-11T17:24:45.949Z,56.97
2023-02-11T17:27:13.840Z,59.73
2023-02-11T17:29:41.230Z,76.67
2023-02-11T17:32:08.623Z,63.43
2023-02-11T17:34:35.965Z,60.03
2023-02-11T17:37:09.090Z,64.50
2023-02-11T17:39:36.484Z,59.03
2023-02-11T17:42:03.878Z,53.67
2023-02-11T17:44:31.246Z,60.70
2023-02-11T17:46:58.572Z,55.97
2023-02-11T17:49:27.458Z,56.17
2023-02-11T17:51:54.810Z,62.53
2023-02-11T17:54:24.714Z,55.23
2023-02-11T17:56:55.218Z,54.87
2023-02-11T17:59:25.247Z,58.93
2023-02-11T18:01:52.683Z,56.37
2023-02-11T18:04:20.949Z,59.47
2023-02-11T18:06:48.427Z,61.43
2023-02-11T18:09:15.771Z,69.27
2023-02-11T18:11:44.479Z,55.20
2023-02-11T18:14:12.053Z,55.67
2023-02-11T18:16:42.888Z,70.93
2023-02-11T18:19:11.393Z,60.83
2023-02-11T18:21:38.723Z,64.20
2023-02-11T18:24:07.244Z,64.47
2023-02-11T18:26:35.114Z,58.57
2023-02-11T18:29:06.160Z,61.23
2023-02-11T18:31:35.202Z,60.27
2023-02-11T18:34:02.989Z,62.93
2023-02-11T18:36:30.337Z,59.90
2023-02-11T18:38:59.616Z,61.00
2023-02-11T18:41:26.994Z,58.93
2023-02-11T18:43:54.646Z,64.23
2023-02-11T18:46:23.462Z,64.07
2023-02-11T18:48:54.959Z,63.10
2023-02-11T18:51:23.206Z,72.43
2023-02-11T18:53:50.622Z,78.70
2023-02-11T18:56:18.925Z,68.70
2023-02-11T18:58:46.271Z,72.57
2023-02-11T19:01:14.614Z,71.00
2023-02-11T19:03:43.435Z,79.93
2023-02-11T19:06:14.881Z,82.77
2023-02-11T19:08:42.346Z,86.43
2023-02-11T19:11:09.685Z,83.03
2023-02-11T19:13:37.548Z,67.17
2023-02-11T19:16:07.718Z,91.90
2023-02-11T19:18:36.091Z,90.07
2023-02-11T19:21:08.771Z,86.80
2023-02-11T19:23:36.635Z,89.93
2023-02-11T19:26:04.820Z,90.40
2023-02-11T19:28:32.290Z,104.50
2023-02-11T19:31:05.575Z,64.60
2023-02-11T19:33:33.011Z,74.73
2023-02-11T19:36:03.025Z,80.73
2023-02-11T19:38:31.761Z,77.33
2023-02-11T19:40:59.182Z,71.53
2023-02-11T19:43:26.710Z,66.57
2023-02-11T19:45:56.271Z,71.33
2023-02-11T19:48:23.673Z,71.17
2023-02-11T19:50:51.302Z,75.47
2023-02-11T19:53:18.656Z,76.73
2023-02-11T19:55:47.584Z,79.33
2023-02-11T19:58:14.950Z,75.33
2023-02-11T20:00:42.268Z,73.33
2023-02-11T20:03:09.594Z,75.73
2023-02-11T20:05:42.239Z,73.37
2023-02-11T20:08:09.589Z,70.03
2023-02-11T20:10:36.925Z,75.37
2023-02-11T20:13:05.753Z,79.60
2023-02-11T20:15:33.152Z,86.13
2023-02-11T20:18:00.500Z,72.10
2023-02-11T20:20:27.889Z,67.63
2023-02-11T20:22:55.281Z,75.80
2023-02-11T20:25:22.618Z,68.70
2023-02-11T20:27:49.955Z,73.87
2023-02-11T20:30:18.773Z,76.27
2023-02-11T20:32:46.111Z,79.20
2023-02-11T20:35:13.459Z,73.73
2023-02-11T20:37:43.792Z,75.03
2023-02-11T20:40:11.879Z,71.80
2023-02-11T20:42:39.672Z,71.47
2023-02-11T20:45:07.229Z,71.43
2023-02-11T20:47:35.919Z,69.67
2023-02-11T20:50:03.319Z,72.67
2023-02-11T20:52:30.710Z,73.03
2023-02-11T20:54:58.175Z,77.67
2023-02-11T20:57:25.529Z,73.83
2023-02-11T20:59:52.891Z,72.93
2023-02-11T21:02:22.345Z,80.50
2023-02-11T21:04:52.251Z,76.13
2023-02-11T21:07:19.903Z,74.77
2023-02-11T21:09:47.209Z,86.00
2023-02-11T21:12:14.542Z,75.07
2023-02-11T21:14:42.003Z,79.57
2023-02-11T21:17:09.357Z,69.40
2023-02-11T21:19:36.681Z,75.33
2023-02-11T21:22:05.390Z,72.00
2023-02-11T21:24:32.713Z,69.43
2023-02-11T21:27:00.100Z,76.37
2023-02-11T21:29:27.467Z,76.80
2023-02-11T21:31:54.828Z,83.90
2023-02-11T21:34:22.229Z,67.00
2023-02-11T21:36:51.049Z,67.47
2023-02-11T21:39:20.224Z,74.23
2023-02-11T21:41:47.560Z,83.13
2023-02-11T21:44:14.903Z,94.80
2023-02-11T21:46:42.330Z,74.50
2023-02-11T21:49:10.015Z,71.67
2023-02-11T21:51:37.363Z,92.57
2023-02-11T21:54:04.826Z,71.57
2023-02-11T21:56:35.313Z,71.50
2023-02-11T21:59:02.756Z,68.20
2023-02-11T22:01:30.925Z,63.83
2023-02-11T22:03:58.498Z,68.17
2023-02-11T22:06:27.045Z,60.07
2023-02-11T22:08:54.822Z,61.17
2023-02-11T22:11:22.430Z,60.13
2023-02-11T22:13:53.555Z,56.67
2023-02-11T22:16:20.959Z,57.57
2023-02-11T22:18:48.435Z,57.60
2023-02-11T22:21:17.056Z,51.93
2023-02-11T22:23:44.526Z,55.70
2023-02-11T22:26:13.354Z,60.57
2023-02-11T22:28:40.943Z,55.93
2023-02-11T22:31:12.058Z,58.83
2023-02-11T22:33:39.490Z,51.23
2023-02-11T22:36:08.477Z,57.73
2023-02-11T22:38:36.238Z,54.37
2023-02-11T22:41:06.778Z,53.53
2023-02-11T22:43:34.181Z,51.20
2023-02-11T22:46:01.660Z,59.37
2023-02-11T22:48:30.453Z,62.13
2023-02-11T22:50:57.839Z,53.20
2023-02-11T22:53:25.580Z,53.83
2023-02-11T22:55:53.157Z,55.53
2023-02-11T22:58:20.600Z,51.10
2023-02-11T23:00:47.978Z,52.20
2023-02-11T23:03:15.504Z,52.93
2023-02-11T23:05:44.261Z,50.63
2023-02-11T23:08:12.630Z,54.57
2023-02-11T23:10:40.714Z,52.77
2023-02-11T23:13:10.062Z,51.93
2023-02-11T23:15:39.491Z,54.47
2023-02-11T23:18:06.895Z,49.80
2023-02-11T23:20:34.874Z,52.40
2023-02-11T23:23:03.831Z,48.90
2023-02-11T23:25:31.636Z,58.20
2023-02-11T23:27:59.015Z,49.77
2023-02-11T23:30:26.640Z,48.47
2023-02-11T23:32:53.986Z,49.57
2023-02-11T23:35:23.166Z,48.40
2023-02-11T23:37:51.150Z,46.17
2023-02-11T23:40:20.343Z,48.60
2023-02-11T23:42:49.015Z,50.53
2023-02-11T23:45:16.578Z,47.33
2023-02-11T23:47:44.999Z,48.57
2023-02-11T23:50:12.634Z,52.77
2023-02-11T23:52:39.955Z,45.73
2023-02-11T23:55:07.818Z,51.83
2023-02-11T23:57:36.487Z,51.17
